Key West, FL

16:11 EST le 17 janvier 2017 (GMT -0500)
Key West High School WeatherSTEM | | Change Station

Alt. 0 ft 24.55 °N, 81.78 °W | Updated 4 minutes ago

Partly Cloudy
Partiellement nuageux
77.6 ° F
Paraît 80 ° F
N
18.0
Vent Variable Vent de SE

Aujourd'hui
Haut(e) -- | Bas -- ° F
--% Risque de précip.
Hier
Haut(e) -- | Bas -- ° F
Precip. -- pouce
Pression 30.15 pouce
Visibilité 10.0 Miles terrestres
Nuages Peu 2800 ft
indice de chaleur 80 ° F
Point de rosée 68 ° F
Humidité 73%
Précipitations 0.04 pouce
Profondeur de la couche neigeuse Non disponible.
7:12 AM 6:01 PM
Lune gibbeuse décroissante, 69% visible
METAR KEYW 172053Z 11012KT 10SM FEW028 26/20 A3015 RMK AO2 SLP210 T02610200 55010
Pression 30.15 pouce
Visibilité 10.0 Miles terrestres
Nuages Peu 2800 ft
indice de chaleur 80 ° F
Point de rosée 68 ° F
Humidité 73%
Précipitations 0.04 pouce
Profondeur de la couche neigeuse Non disponible.
7:12 AM 6:01 PM
Lune gibbeuse décroissante, 69% visible
METAR KEYW 172053Z 11012KT 10SM FEW028 26/20 A3015 RMK AO2 SLP210 T02610200 55010

Get Your Daily Forecast Email!

Thanks for signing up!

Be on the lookout for a verification email in your inbox.

You'll start receiving the daily forecast at 8 AM.

×

10-Day Weather Forecast

Almanac

Astronomie

Jan. 17, 2017 Lever Coucher
Temps réel
Crépuscule civil
Crépuscule nautique
Crépuscule astronomique
Lune
Durée de lumière visible
Longueur du jour
Tomorrow will be .
, % of the Moon is Illuminated

Extrêmes aujourd'hui

State Highs State Lows

Community

WunderPhotos

Upload Photos

1,962,540 Photos téléchargées !

WunderBlog® & News

Nearby

Qualité de l'air

  Qualité de l'air Indice de la qualité de l'air Polluant
Not available.

Épaisseur de neige

Station Depth Altitude

Activité sismique

Ville Distance Mag. Time & Date
Minimum magnitude displayed is 2.5.

Températures des eaux côtières

Lieu Température

Stations

Stations météo à proximité

Emplacement de la station Température Refroidissement éolien Point de rosée Humidité Vent Precip. Alt. Mise à jour Type
                   

Watches & Warnings

There are currently no watches in effect.